sensor_id;sensor_type;location;lat;lon;timestamp;temperature;humidity
3942;DHT22;1985;48.592;8.850;2023-09-30T00:01:45;17.50;99.90
3942;DHT22;1985;48.592;8.850;2023-09-30T00:04:11;17.60;99.90
3942;DHT22;1985;48.592;8.850;2023-09-30T00:06:36;17.60;99.90
3942;DHT22;1985;48.592;8.850;2023-09-30T00:09:02;17.60;99.90
3942;DHT22;1985;48.592;8.850;2023-09-30T00:11:28;17.50;99.90
3942;DHT22;1985;48.592;8.850;2023-09-30T00:13:54;17.50;99.90
3942;DHT22;1985;48.592;8.850;2023-09-30T00:16:19;17.50;99.90
3942;DHT22;1985;48.592;8.850;2023-09-30T00:18:45;17.50;99.90
3942;DHT22;1985;48.592;8.850;2023-09-30T00:21:11;17.30;99.90
3942;DHT22;1985;48.592;8.850;2023-09-30T00:23:37;17.20;99.90
3942;DHT22;1985;48.592;8.850;2023-09-30T00:26:03;17.30;99.90
3942;DHT22;1985;48.592;8.850;2023-09-30T00:28:29;17.20;99.90
3942;DHT22;1985;48.592;8.850;2023-09-30T00:30:54;17.20;99.90
3942;DHT22;1985;48.592;8.850;2023-09-30T00:33:20;17.20;99.90
3942;DHT22;1985;48.592;8.850;2023-09-30T00:35:46;17.20;99.90
3942;DHT22;1985;48.592;8.850;2023-09-30T00:38:11;17.20;99.90
3942;DHT22;1985;48.592;8.850;2023-09-30T00:40:37;17.30;99.90
3942;DHT22;1985;48.592;8.850;2023-09-30T00:43:03;17.10;99.90
3942;DHT22;1985;48.592;8.850;2023-09-30T00:45:29;17.00;99.90
3942;DHT22;1985;48.592;8.850;2023-09-30T00:47:55;16.90;99.90
3942;DHT22;1985;48.592;8.850;2023-09-30T00:50:21;16.80;99.90
3942;DHT22;1985;48.592;8.850;2023-09-30T00:52:48;16.70;99.90
3942;DHT22;1985;48.592;8.850;2023-09-30T00:55:14;16.70;99.90
3942;DHT22;1985;48.592;8.850;2023-09-30T00:57:40;16.80;99.90
3942;DHT22;1985;48.592;8.850;2023-09-30T01:00:07;16.90;99.90
3942;DHT22;1985;48.592;8.850;2023-09-30T01:02:40;16.90;99.90
3942;DHT22;1985;48.592;8.850;2023-09-30T01:05:10;16.70;99.90
3942;DHT22;1985;48.592;8.850;2023-09-30T01:07:36;16.60;99.90
3942;DHT22;1985;48.592;8.850;2023-09-30T01:10:02;16.60;99.90
3942;DHT22;1985;48.592;8.850;2023-09-30T01:12:28;16.50;99.90
3942;DHT22;1985;48.592;8.850;2023-09-30T01:14:58;16.60;99.90
3942;DHT22;1985;48.592;8.850;2023-09-30T01:17:25;16.60;99.90
3942;DHT22;1985;48.592;8.850;2023-09-30T01:19:51;16.70;99.90
3942;DHT22;1985;48.592;8.850;2023-09-30T01:22:17;16.80;99.90
3942;DHT22;1985;48.592;8.850;2023-09-30T01:24:43;16.90;99.90
3942;DHT22;1985;48.592;8.850;2023-09-30T01:27:09;16.90;99.90
3942;DHT22;1985;48.592;8.850;2023-09-30T01:29:35;16.90;99.90
3942;DHT22;1985;48.592;8.850;2023-09-30T01:32:04;17.00;99.90
3942;DHT22;1985;48.592;8.850;2023-09-30T01:34:33;17.10;99.90
3942;DHT22;1985;48.592;8.850;2023-09-30T01:36:58;17.10;99.90
3942;DHT22;1985;48.592;8.850;2023-09-30T01:39:24;17.20;99.90
3942;DHT22;1985;48.592;8.850;2023-09-30T01:41:50;17.20;99.90
3942;DHT22;1985;48.592;8.850;2023-09-30T01:44:16;17.10;99.90
3942;DHT22;1985;48.592;8.850;2023-09-30T01:46:41;17.10;99.90
3942;DHT22;1985;48.592;8.850;2023-09-30T01:49:07;17.20;99.90
3942;DHT22;1985;48.592;8.850;2023-09-30T01:51:32;17.10;99.90
3942;DHT22;1985;48.592;8.850;2023-09-30T01:53:58;17.00;99.90
3942;DHT22;1985;48.592;8.850;2023-09-30T01:56:24;16.90;99.90
3942;DHT22;1985;48.592;8.850;2023-09-30T01:58:49;17.00;99.90
3942;DHT22;1985;48.592;8.850;2023-09-30T02:01:15;17.00;99.90
3942;DHT22;1985;48.592;8.850;2023-09-30T02:03:41;16.90;99.90
3942;DHT22;1985;48.592;8.850;2023-09-30T02:06:08;16.80;99.90
3942;DHT22;1985;48.592;8.850;2023-09-30T02:08:33;16.60;99.90
3942;DHT22;1985;48.592;8.850;2023-09-30T02:11:02;16.40;99.90
3942;DHT22;1985;48.592;8.850;2023-09-30T02:13:28;16.10;99.90
3942;DHT22;1985;48.592;8.850;2023-09-30T02:15:53;16.00;99.90
3942;DHT22;1985;48.592;8.850;2023-09-30T02:18:21;15.90;99.90
3942;DHT22;1985;48.592;8.850;2023-09-30T02:20:47;16.00;99.90
3942;DHT22;1985;48.592;8.850;2023-09-30T02:23:12;16.20;99.90
3942;DHT22;1985;48.592;8.850;2023-09-30T02:25:39;16.40;99.90
3942;DHT22;1985;48.592;8.850;2023-09-30T02:28:08;16.40;99.90
3942;DHT22;1985;48.592;8.850;2023-09-30T02:30:34;16.50;99.90
3942;DHT22;1985;48.592;8.850;2023-09-30T02:32:59;16.60;99.90
3942;DHT22;1985;48.592;8.850;2023-09-30T02:35:26;16.60;99.90
3942;DHT22;1985;48.592;8.850;2023-09-30T02:37:51;16.70;99.90
3942;DHT22;1985;48.592;8.850;2023-09-30T02:40:19;16.80;99.90
3942;DHT22;1985;48.592;8.850;2023-09-30T02:42:45;16.90;99.90
3942;DHT22;1985;48.592;8.850;2023-09-30T02:45:12;16.90;99.90
3942;DHT22;1985;48.592;8.850;2023-09-30T02:47:39;16.90;99.90
3942;DHT22;1985;48.592;8.850;2023-09-30T02:50:06;16.90;99.90
3942;DHT22;1985;48.592;8.850;2023-09-30T02:52:33;17.00;99.90
3942;DHT22;1985;48.592;8.850;2023-09-30T02:54:59;17.00;99.90
3942;DHT22;1985;48.592;8.850;2023-09-30T02:57:25;17.00;99.90
3942;DHT22;1985;48.592;8.850;2023-09-30T02:59:53;17.10;99.90
3942;DHT22;1985;48.592;8.850;2023-09-30T03:02:19;17.20;99.90
3942;DHT22;1985;48.592;8.850;2023-09-30T03:04:46;17.10;99.90
3942;DHT22;1985;48.592;8.850;2023-09-30T03:07:13;17.10;99.90
3942;DHT22;1985;48.592;8.850;2023-09-30T03:09:39;17.10;99.90
3942;DHT22;1985;48.592;8.850;2023-09-30T03:12:05;17.20;99.90
3942;DHT22;1985;48.592;8.850;2023-09-30T03:14:31;17.20;99.90
3942;DHT22;1985;48.592;8.850;2023-09-30T03:16:59;17.30;99.90
3942;DHT22;1985;48.592;8.850;2023-09-30T03:19:25;17.40;99.90
3942;DHT22;1985;48.592;8.850;2023-09-30T03:21:51;17.40;99.90
3942;DHT22;1985;48.592;8.850;2023-09-30T03:24:16;17.40;99.90
3942;DHT22;1985;48.592;8.850;2023-09-30T03:26:42;17.50;99.90
3942;DHT22;1985;48.592;8.850;2023-09-30T03:29:09;17.50;99.90
3942;DHT22;1985;48.592;8.850;2023-09-30T03:31:35;17.50;99.90
3942;DHT22;1985;48.592;8.850;2023-09-30T03:34:02;17.50;99.90
3942;DHT22;1985;48.592;8.850;2023-09-30T03:36:29;17.50;99.90
3942;DHT22;1985;48.592;8.850;2023-09-30T03:38:55;17.50;99.90
3942;DHT22;1985;48.592;8.850;2023-09-30T03:41:21;17.40;99.90
3942;DHT22;1985;48.592;8.850;2023-09-30T03:43:46;17.30;99.90
3942;DHT22;1985;48.592;8.850;2023-09-30T03:46:14;17.40;99.90
3942;DHT22;1985;48.592;8.850;2023-09-30T03:48:41;17.50;99.90
3942;DHT22;1985;48.592;8.850;2023-09-30T03:51:12;17.50;99.90
3942;DHT22;1985;48.592;8.850;2023-09-30T03:53:43;17.60;99.90
3942;DHT22;1985;48.592;8.850;2023-09-30T03:56:09;17.60;99.90
3942;DHT22;1985;48.592;8.850;2023-09-30T03:58:40;17.60;99.90
3942;DHT22;1985;48.592;8.850;2023-09-30T04:01:06;17.60;99.90
3942;DHT22;1985;48.592;8.850;2023-09-30T04:03:33;17.50;99.90
3942;DHT22;1985;48.592;8.850;2023-09-30T04:06:01;17.50;99.90
3942;DHT22;1985;48.592;8.850;2023-09-30T04:08:26;17.50;99.90
3942;DHT22;1985;48.592;8.850;2023-09-30T04:10:52;17.50;99.90
3942;DHT22;1985;48.592;8.850;2023-09-30T04:13:17;17.50;99.90
3942;DHT22;1985;48.592;8.850;2023-09-30T04:15:44;17.50;99.90
3942;DHT22;1985;48.592;8.850;2023-09-30T04:18:12;17.40;99.90
3942;DHT22;1985;48.592;8.850;2023-09-30T04:20:38;17.40;99.90
3942;DHT22;1985;48.592;8.850;2023-09-30T04:23:06;17.40;99.90
3942;DHT22;1985;48.592;8.850;2023-09-30T04:25:32;17.30;99.90
3942;DHT22;1985;48.592;8.850;2023-09-30T04:27:58;17.20;99.90
3942;DHT22;1985;48.592;8.850;2023-09-30T04:30:24;17.00;99.90
3942;DHT22;1985;48.592;8.850;2023-09-30T04:32:49;16.90;99.90
3942;DHT22;1985;48.592;8.850;2023-09-30T04:35:15;17.10;99.90
3942;DHT22;1985;48.592;8.850;2023-09-30T04:37:41;17.10;99.90
3942;DHT22;1985;48.592;8.850;2023-09-30T04:40:10;17.10;99.90
3942;DHT22;1985;48.592;8.850;2023-09-30T04:42:44;17.10;99.90
3942;DHT22;1985;48.592;8.850;2023-09-30T04:45:11;17.20;99.90
3942;DHT22;1985;48.592;8.850;2023-09-30T04:47:36;17.10;99.90
3942;DHT22;1985;48.592;8.850;2023-09-30T04:50:08;17.10;99.90
3942;DHT22;1985;48.592;8.850;2023-09-30T04:52:34;17.10;99.90
3942;DHT22;1985;48.592;8.850;2023-09-30T04:55:00;17.10;99.90
3942;DHT22;1985;48.592;8.850;2023-09-30T04:57:26;17.00;99.90
3942;DHT22;1985;48.592;8.850;2023-09-30T04:59:52;17.00;99.90
3942;DHT22;1985;48.592;8.850;2023-09-30T05:02:18;16.80;99.90
3942;DHT22;1985;48.592;8.850;2023-09-30T05:04:43;16.80;99.90
3942;DHT22;1985;48.592;8.850;2023-09-30T05:07:10;16.80;99.90
3942;DHT22;1985;48.592;8.850;2023-09-30T05:09:35;16.80;99.90
3942;DHT22;1985;48.592;8.850;2023-09-30T05:12:02;16.70;99.90
3942;DHT22;1985;48.592;8.850;2023-09-30T05:14:29;16.70;99.90
3942;DHT22;1985;48.592;8.850;2023-09-30T05:16:55;16.80;99.90
3942;DHT22;1985;48.592;8.850;2023-09-30T05:19:22;16.90;99.90
3942;DHT22;1985;48.592;8.850;2023-09-30T05:21:48;16.90;99.90
3942;DHT22;1985;48.592;8.850;2023-09-30T05:24:14;16.90;99.90
3942;DHT22;1985;48.592;8.850;2023-09-30T05:26:40;16.90;99.90
3942;DHT22;1985;48.592;8.850;2023-09-30T05:29:06;16.90;99.90
3942;DHT22;1985;48.592;8.850;2023-09-30T05:31:32;16.80;99.90
3942;DHT22;1985;48.592;8.850;2023-09-30T05:33:58;16.70;99.90
3942;DHT22;1985;48.592;8.850;2023-09-30T05:36:24;16.80;99.90
3942;DHT22;1985;48.592;8.850;2023-09-30T05:38:49;16.80;99.90
3942;DHT22;1985;48.592;8.850;2023-09-30T05:41:15;16.70;99.90
3942;DHT22;1985;48.592;8.850;2023-09-30T05:43:41;16.60;99.90
3942;DHT22;1985;48.592;8.850;2023-09-30T05:46:09;16.70;99.90
3942;DHT22;1985;48.592;8.850;2023-09-30T05:48:34;16.60;99.90
3942;DHT22;1985;48.592;8.850;2023-09-30T05:51:00;16.60;99.90
3942;DHT22;1985;48.592;8.850;2023-09-30T05:53:27;16.60;99.90
3942;DHT22;1985;48.592;8.850;2023-09-30T05:55:53;16.60;99.90
3942;DHT22;1985;48.592;8.850;2023-09-30T05:58:19;16.60;99.90
3942;DHT22;1985;48.592;8.850;2023-09-30T06:00:44;16.60;99.90
3942;DHT22;1985;48.592;8.850;2023-09-30T06:03:11;16.70;99.90
3942;DHT22;1985;48.592;8.850;2023-09-30T06:05:40;16.70;99.90
3942;DHT22;1985;48.592;8.850;2023-09-30T06:08:07;16.80;99.90
3942;DHT22;1985;48.592;8.850;2023-09-30T06:10:36;16.80;99.90
3942;DHT22;1985;48.592;8.850;2023-09-30T06:13:04;16.50;99.90
3942;DHT22;1985;48.592;8.850;2023-09-30T06:15:31;16.30;99.90
3942;DHT22;1985;48.592;8.850;2023-09-30T06:17:57;16.30;99.90
3942;DHT22;1985;48.592;8.850;2023-09-30T06:20:23;16.40;99.90
3942;DHT22;1985;48.592;8.850;2023-09-30T06:22:51;16.50;99.90
3942;DHT22;1985;48.592;8.850;2023-09-30T06:25:19;16.50;99.90
3942;DHT22;1985;48.592;8.850;2023-09-30T06:27:47;16.60;99.90
3942;DHT22;1985;48.592;8.850;2023-09-30T06:30:13;16.60;99.90
3942;DHT22;1985;48.592;8.850;2023-09-30T06:32:41;16.80;99.90
3942;DHT22;1985;48.592;8.850;2023-09-30T06:35:07;16.90;99.90
3942;DHT22;1985;48.592;8.850;2023-09-30T06:37:36;16.90;99.90
3942;DHT22;1985;48.592;8.850;2023-09-30T06:40:04;16.70;99.90
3942;DHT22;1985;48.592;8.850;2023-09-30T06:42:30;16.70;99.90
3942;DHT22;1985;48.592;8.850;2023-09-30T06:44:56;16.60;99.90
3942;DHT22;1985;48.592;8.850;2023-09-30T06:47:22;16.70;99.90
3942;DHT22;1985;48.592;8.850;2023-09-30T06:49:49;16.80;99.90
3942;DHT22;1985;48.592;8.850;2023-09-30T06:52:15;16.90;99.90
3942;DHT22;1985;48.592;8.850;2023-09-30T06:54:40;16.90;99.90
3942;DHT22;1985;48.592;8.850;2023-09-30T06:57:06;16.90;99.90
3942;DHT22;1985;48.592;8.850;2023-09-30T06:59:33;17.10;99.90
3942;DHT22;1985;48.592;8.850;2023-09-30T07:01:59;17.10;99.90
3942;DHT22;1985;48.592;8.850;2023-09-30T07:04:24;17.20;99.90
3942;DHT22;1985;48.592;8.850;2023-09-30T07:06:52;17.30;99.90
3942;DHT22;1985;48.592;8.850;2023-09-30T07:09:18;17.50;99.90
3942;DHT22;1985;48.592;8.850;2023-09-30T07:11:45;17.60;99.90
3942;DHT22;1985;48.592;8.850;2023-09-30T07:14:11;17.70;99.90
3942;DHT22;1985;48.592;8.850;2023-09-30T07:16:36;17.90;99.90
3942;DHT22;1985;48.592;8.850;2023-09-30T07:19:02;17.80;99.90
3942;DHT22;1985;48.592;8.850;2023-09-30T07:21:28;17.30;99.90
3942;DHT22;1985;48.592;8.850;2023-09-30T07:23:54;17.30;99.90
3942;DHT22;1985;48.592;8.850;2023-09-30T07:26:24;17.30;99.90
3942;DHT22;1985;48.592;8.850;2023-09-30T07:28:50;17.50;99.90
3942;DHT22;1985;48.592;8.850;2023-09-30T07:31:15;17.70;99.90
3942;DHT22;1985;48.592;8.850;2023-09-30T07:33:41;17.80;99.90
3942;DHT22;1985;48.592;8.850;2023-09-30T07:36:07;17.90;99.90
3942;DHT22;1985;48.592;8.850;2023-09-30T07:38:32;18.10;99.90
3942;DHT22;1985;48.592;8.850;2023-09-30T07:41:00;18.30;99.90
3942;DHT22;1985;48.592;8.850;2023-09-30T07:43:28;18.50;99.90
3942;DHT22;1985;48.592;8.850;2023-09-30T07:45:53;18.60;99.90
3942;DHT22;1985;48.592;8.850;2023-09-30T07:48:19;18.70;99.90
3942;DHT22;1985;48.592;8.850;2023-09-30T07:50:45;18.80;99.90
3942;DHT22;1985;48.592;8.850;2023-09-30T07:53:12;18.90;99.90
3942;DHT22;1985;48.592;8.850;2023-09-30T07:55:38;19.10;99.90
3942;DHT22;1985;48.592;8.850;2023-09-30T07:58:04;19.20;99.90
3942;DHT22;1985;48.592;8.850;2023-09-30T08:00:30;19.30;99.90
3942;DHT22;1985;48.592;8.850;2023-09-30T08:02:56;19.30;99.90
3942;DHT22;1985;48.592;8.850;2023-09-30T08:05:21;19.40;99.90
3942;DHT22;1985;48.592;8.850;2023-09-30T08:07:47;19.50;99.90
3942;DHT22;1985;48.592;8.850;2023-09-30T08:10:13;19.50;99.90
3942;DHT22;1985;48.592;8.850;2023-09-30T08:12:42;19.60;99.90
3942;DHT22;1985;48.592;8.850;2023-09-30T08:15:08;19.70;99.90
3942;DHT22;1985;48.592;8.850;2023-09-30T08:17:36;19.80;99.90
3942;DHT22;1985;48.592;8.850;2023-09-30T08:20:02;19.80;99.90
3942;DHT22;1985;48.592;8.850;2023-09-30T08:22:29;19.80;99.90
3942;DHT22;1985;48.592;8.850;2023-09-30T08:24:55;19.90;99.90
3942;DHT22;1985;48.592;8.850;2023-09-30T08:27:21;19.90;99.90
3942;DHT22;1985;48.592;8.850;2023-09-30T08:29:49;19.90;99.90
3942;DHT22;1985;48.592;8.850;2023-09-30T08:32:14;19.90;99.90
3942;DHT22;1985;48.592;8.850;2023-09-30T08:34:40;19.90;99.90
3942;DHT22;1985;48.592;8.850;2023-09-30T08:37:06;20.00;99.90
3942;DHT22;1985;48.592;8.850;2023-09-30T08:39:31;20.00;99.90
3942;DHT22;1985;48.592;8.850;2023-09-30T08:41:57;20.10;99.90
3942;DHT22;1985;48.592;8.850;2023-09-30T08:44:23;20.10;99.90
3942;DHT22;1985;48.592;8.850;2023-09-30T08:46:50;20.10;99.90
3942;DHT22;1985;48.592;8.850;2023-09-30T08:49:16;20.10;99.90
3942;DHT22;1985;48.592;8.850;2023-09-30T08:51:43;20.10;99.90
3942;DHT22;1985;48.592;8.850;2023-09-30T08:54:09;20.10;99.90
3942;DHT22;1985;48.592;8.850;2023-09-30T08:56:36;20.20;99.90
3942;DHT22;1985;48.592;8.850;2023-09-30T08:59:03;20.40;99.90
3942;DHT22;1985;48.592;8.850;2023-09-30T09:01:30;20.50;99.90
3942;DHT22;1985;48.592;8.850;2023-09-30T09:03:56;20.50;99.90
3942;DHT22;1985;48.592;8.850;2023-09-30T09:06:24;20.50;99.90
3942;DHT22;1985;48.592;8.850;2023-09-30T09:08:50;20.50;99.90
3942;DHT22;1985;48.592;8.850;2023-09-30T09:11:17;20.50;99.90
3942;DHT22;1985;48.592;8.850;2023-09-30T09:14:00;20.50;99.90
3942;DHT22;1985;48.592;8.850;2023-09-30T09:16:26;20.70;99.90
3942;DHT22;1985;48.592;8.850;2023-09-30T09:18:51;20.70;99.90
3942;DHT22;1985;48.592;8.850;2023-09-30T09:21:21;20.70;99.90
3942;DHT22;1985;48.592;8.850;2023-09-30T09:23:50;20.50;99.90
3942;DHT22;1985;48.592;8.850;2023-09-30T09:26:29;20.50;99.90
3942;DHT22;1985;48.592;8.850;2023-09-30T09:29:03;20.50;99.90
3942;DHT22;1985;48.592;8.850;2023-09-30T09:31:32;20.20;99.90
3942;DHT22;1985;48.592;8.850;2023-09-30T09:34:00;19.70;99.90
3942;DHT22;1985;48.592;8.850;2023-09-30T09:36:45;20.00;99.90
3942;DHT22;1985;48.592;8.850;2023-09-30T09:39:11;20.30;99.90
3942;DHT22;1985;48.592;8.850;2023-09-30T09:41:52;20.40;99.90
3942;DHT22;1985;48.592;8.850;2023-09-30T09:44:21;20.50;99.90
3942;DHT22;1985;48.592;8.850;2023-09-30T09:46:48;20.50;99.90
3942;DHT22;1985;48.592;8.850;2023-09-30T09:49:18;20.60;99.90
3942;DHT22;1985;48.592;8.850;2023-09-30T09:51:45;20.70;99.90
3942;DHT22;1985;48.592;8.850;2023-09-30T09:54:12;20.90;99.90
3942;DHT22;1985;48.592;8.850;2023-09-30T09:56:39;21.00;99.90
3942;DHT22;1985;48.592;8.850;2023-09-30T09:59:05;21.20;99.90
3942;DHT22;1985;48.592;8.850;2023-09-30T10:01:33;21.60;99.90
3942;DHT22;1985;48.592;8.850;2023-09-30T10:03:59;21.70;99.90
3942;DHT22;1985;48.592;8.850;2023-09-30T10:06:24;21.50;99.90
3942;DHT22;1985;48.592;8.850;2023-09-30T10:08:51;21.70;99.90
3942;DHT22;1985;48.592;8.850;2023-09-30T10:11:18;22.90;99.90
3942;DHT22;1985;48.592;8.850;2023-09-30T10:21:37;24.20;93.40
3942;DHT22;1985;48.592;8.850;2023-09-30T10:24:35;24.10;93.50
3942;DHT22;1985;48.592;8.850;2023-09-30T10:40:47;20.90;96.00
3942;DHT22;1985;48.592;8.850;2023-09-30T10:43:32;20.90;98.00
3942;DHT22;1985;48.592;8.850;2023-09-30T10:45:58;20.90;97.60
3942;DHT22;1985;48.592;8.850;2023-09-30T10:51:20;21.10;97.50
3942;DHT22;1985;48.592;8.850;2023-09-30T10:53:51;20.90;95.80
3942;DHT22;1985;48.592;8.850;2023-09-30T10:56:19;20.60;96.40
3942;DHT22;1985;48.592;8.850;2023-09-30T10:58:49;20.60;95.50
3942;DHT22;1985;48.592;8.850;2023-09-30T11:01:17;20.50;95.50
3942;DHT22;1985;48.592;8.850;2023-09-30T11:03:43;20.50;96.80
3942;DHT22;1985;48.592;8.850;2023-09-30T11:06:16;20.60;97.70
3942;DHT22;1985;48.592;8.850;2023-09-30T11:08:59;20.60;95.30
3942;DHT22;1985;48.592;8.850;2023-09-30T11:11:38;20.80;95.60
3942;DHT22;1985;48.592;8.850;2023-09-30T11:14:24;21.00;93.70
3942;DHT22;1985;48.592;8.850;2023-09-30T11:16:51;21.50;92.80
3942;DHT22;1985;48.592;8.850;2023-09-30T11:19:18;21.90;91.10
3942;DHT22;1985;48.592;8.850;2023-09-30T11:21:51;22.10;91.20
3942;DHT22;1985;48.592;8.850;2023-09-30T11:24:18;22.60;92.70
3942;DHT22;1985;48.592;8.850;2023-09-30T11:26:44;23.10;90.40
3942;DHT22;1985;48.592;8.850;2023-09-30T11:29:12;23.10;89.70
3942;DHT22;1985;48.592;8.850;2023-09-30T11:31:43;23.40;90.60
3942;DHT22;1985;48.592;8.850;2023-09-30T11:34:09;23.80;86.00
3942;DHT22;1985;48.592;8.850;2023-09-30T11:36:39;24.20;86.30
3942;DHT22;1985;48.592;8.850;2023-09-30T11:39:05;24.60;80.90
3942;DHT22;1985;48.592;8.850;2023-09-30T11:41:39;24.90;82.30
3942;DHT22;1985;48.592;8.850;2023-09-30T11:44:10;25.20;80.70
3942;DHT22;1985;48.592;8.850;2023-09-30T11:49:29;24.30;80.80
3942;DHT22;1985;48.592;8.850;2023-09-30T11:51:56;24.10;77.40
3942;DHT22;1985;48.592;8.850;2023-09-30T11:54:38;23.70;77.70
3942;DHT22;1985;48.592;8.850;2023-09-30T11:57:07;23.90;82.30
3942;DHT22;1985;48.592;8.850;2023-09-30T11:59:35;24.10;78.70
3942;DHT22;1985;48.592;8.850;2023-09-30T12:02:01;24.00;78.10
3942;DHT22;1985;48.592;8.850;2023-09-30T12:04:27;23.60;80.50
3942;DHT22;1985;48.592;8.850;2023-09-30T12:06:52;23.20;77.10
3942;DHT22;1985;48.592;8.850;2023-09-30T12:09:19;22.90;79.80
3942;DHT22;1985;48.592;8.850;2023-09-30T12:11:54;22.80;80.80
3942;DHT22;1985;48.592;8.850;2023-09-30T12:14:21;22.80;81.50
3942;DHT22;1985;48.592;8.850;2023-09-30T12:16:47;22.80;80.70
3942;DHT22;1985;48.592;8.850;2023-09-30T12:19:16;22.90;82.60
3942;DHT22;1985;48.592;8.850;2023-09-30T12:21:44;23.30;80.60
3942;DHT22;1985;48.592;8.850;2023-09-30T12:24:13;23.50;80.00
3942;DHT22;1985;48.592;8.850;2023-09-30T12:26:51;23.40;76.40
3942;DHT22;1985;48.592;8.850;2023-09-30T12:29:21;23.60;77.80
3942;DHT22;1985;48.592;8.850;2023-09-30T12:31:49;23.70;77.80
3942;DHT22;1985;48.592;8.850;2023-09-30T12:34:15;23.80;77.70
3942;DHT22;1985;48.592;8.850;2023-09-30T12:36:41;23.80;76.20
3942;DHT22;1985;48.592;8.850;2023-09-30T12:39:08;23.70;75.80
3942;DHT22;1985;48.592;8.850;2023-09-30T12:41:41;23.60;75.70
3942;DHT22;1985;48.592;8.850;2023-09-30T12:44:07;23.70;75.20
3942;DHT22;1985;48.592;8.850;2023-09-30T12:46:33;24.00;75.40
3942;DHT22;1985;48.592;8.850;2023-09-30T12:49:01;24.40;73.90
3942;DHT22;1985;48.592;8.850;2023-09-30T12:51:28;24.70;72.10
3942;DHT22;1985;48.592;8.850;2023-09-30T12:53:53;24.90;69.80
3942;DHT22;1985;48.592;8.850;2023-09-30T12:56:19;24.90;68.30
3942;DHT22;1985;48.592;8.850;2023-09-30T12:58:44;24.80;68.90
3942;DHT22;1985;48.592;8.850;2023-09-30T13:01:10;24.50;68.20
3942;DHT22;1985;48.592;8.850;2023-09-30T13:03:37;24.30;70.10
3942;DHT22;1985;48.592;8.850;2023-09-30T13:06:02;24.00;68.50
3942;DHT22;1985;48.592;8.850;2023-09-30T13:08:29;23.80;69.20
3942;DHT22;1985;48.592;8.850;2023-09-30T13:11:00;23.70;70.50
3942;DHT22;1985;48.592;8.850;2023-09-30T13:13:27;23.60;70.90
3942;DHT22;1985;48.592;8.850;2023-09-30T13:15:52;23.50;71.50
3942;DHT22;1985;48.592;8.850;2023-09-30T13:18:18;23.40;72.00
3942;DHT22;1985;48.592;8.850;2023-09-30T13:20:44;23.20;74.10
3942;DHT22;1985;48.592;8.850;2023-09-30T13:23:09;23.00;75.40
3942;DHT22;1985;48.592;8.850;2023-09-30T13:25:35;22.80;75.90
3942;DHT22;1985;48.592;8.850;2023-09-30T13:28:00;22.80;76.30
3942;DHT22;1985;48.592;8.850;2023-09-30T13:30:27;22.80;75.90
3942;DHT22;1985;48.592;8.850;2023-09-30T13:32:52;22.80;76.30
3942;DHT22;1985;48.592;8.850;2023-09-30T13:35:18;23.00;76.50
3942;DHT22;1985;48.592;8.850;2023-09-30T13:37:44;23.20;76.00
3942;DHT22;1985;48.592;8.850;2023-09-30T13:40:10;23.30;75.50
3942;DHT22;1985;48.592;8.850;2023-09-30T13:42:38;23.50;75.80
3942;DHT22;1985;48.592;8.850;2023-09-30T13:45:04;23.80;74.70
3942;DHT22;1985;48.592;8.850;2023-09-30T13:47:32;24.10;74.00
3942;DHT22;1985;48.592;8.850;2023-09-30T13:49:58;24.30;73.30
3942;DHT22;1985;48.592;8.850;2023-09-30T13:52:23;24.30;71.90
3942;DHT22;1985;48.592;8.850;2023-09-30T13:54:49;24.50;71.80
3942;DHT22;1985;48.592;8.850;2023-09-30T13:57:15;24.70;71.00
3942;DHT22;1985;48.592;8.850;2023-09-30T13:59:41;24.80;69.10
3942;DHT22;1985;48.592;8.850;2023-09-30T14:02:07;24.70;68.80
3942;DHT22;1985;48.592;8.850;2023-09-30T14:04:33;24.70;68.70
3942;DHT22;1985;48.592;8.850;2023-09-30T14:07:01;24.70;68.90
3942;DHT22;1985;48.592;8.850;2023-09-30T14:09:28;24.60;69.60
3942;DHT22;1985;48.592;8.850;2023-09-30T14:11:54;24.50;69.80
3942;DHT22;1985;48.592;8.850;2023-09-30T14:14:20;24.40;69.70
3942;DHT22;1985;48.592;8.850;2023-09-30T14:16:45;24.20;69.60
3942;DHT22;1985;48.592;8.850;2023-09-30T14:19:12;24.10;69.50
3942;DHT22;1985;48.592;8.850;2023-09-30T14:21:39;24.00;70.30
3942;DHT22;1985;48.592;8.850;2023-09-30T14:24:05;23.90;70.90
3942;DHT22;1985;48.592;8.850;2023-09-30T14:26:32;23.90;71.40
3942;DHT22;1985;48.592;8.850;2023-09-30T14:28:57;23.90;72.20
3942;DHT22;1985;48.592;8.850;2023-09-30T14:31:23;23.90;71.80
3942;DHT22;1985;48.592;8.850;2023-09-30T14:33:48;23.80;72.20
3942;DHT22;1985;48.592;8.850;2023-09-30T14:36:16;23.70;73.40
3942;DHT22;1985;48.592;8.850;2023-09-30T14:38:43;23.70;74.40
3942;DHT22;1985;48.592;8.850;2023-09-30T14:41:10;23.80;75.40
3942;DHT22;1985;48.592;8.850;2023-09-30T14:43:38;23.90;74.90
3942;DHT22;1985;48.592;8.850;2023-09-30T14:46:03;24.00;74.90
3942;DHT22;1985;48.592;8.850;2023-09-30T14:48:29;24.00;75.20
3942;DHT22;1985;48.592;8.850;2023-09-30T14:50:55;24.00;74.40
3942;DHT22;1985;48.592;8.850;2023-09-30T14:53:22;23.90;73.90
3942;DHT22;1985;48.592;8.850;2023-09-30T14:55:48;23.90;74.30
3942;DHT22;1985;48.592;8.850;2023-09-30T14:58:13;23.80;74.20
3942;DHT22;1985;48.592;8.850;2023-09-30T15:00:39;23.50;74.00
3942;DHT22;1985;48.592;8.850;2023-09-30T15:03:05;23.50;74.70
3942;DHT22;1985;48.592;8.850;2023-09-30T15:05:34;23.50;74.80
3942;DHT22;1985;48.592;8.850;2023-09-30T15:08:01;23.50;74.20
3942;DHT22;1985;48.592;8.850;2023-09-30T15:10:27;23.60;74.50
3942;DHT22;1985;48.592;8.850;2023-09-30T15:12:56;23.60;74.20
3942;DHT22;1985;48.592;8.850;2023-09-30T15:15:23;23.50;73.80
3942;DHT22;1985;48.592;8.850;2023-09-30T15:17:49;23.50;74.00
3942;DHT22;1985;48.592;8.850;2023-09-30T15:20:14;23.50;74.30
3942;DHT22;1985;48.592;8.850;2023-09-30T15:22:41;23.50;74.10
3942;DHT22;1985;48.592;8.850;2023-09-30T15:25:07;23.40;74.10
3942;DHT22;1985;48.592;8.850;2023-09-30T15:27:34;23.30;74.30
3942;DHT22;1985;48.592;8.850;2023-09-30T15:30:00;23.20;73.80
3942;DHT22;1985;48.592;8.850;2023-09-30T15:32:25;23.00;74.30
3942;DHT22;1985;48.592;8.850;2023-09-30T15:34:51;23.00;75.50
3942;DHT22;1985;48.592;8.850;2023-09-30T15:37:16;22.90;76.10
3942;DHT22;1985;48.592;8.850;2023-09-30T15:39:42;22.70;76.20
3942;DHT22;1985;48.592;8.850;2023-09-30T15:42:09;22.70;77.00
3942;DHT22;1985;48.592;8.850;2023-09-30T15:44:37;22.50;77.40
3942;DHT22;1985;48.592;8.850;2023-09-30T15:47:05;22.50;77.80
3942;DHT22;1985;48.592;8.850;2023-09-30T15:49:32;22.40;78.20
3942;DHT22;1985;48.592;8.850;2023-09-30T15:51:57;22.30;77.90
3942;DHT22;1985;48.592;8.850;2023-09-30T15:54:23;22.20;78.10
3942;DHT22;1985;48.592;8.850;2023-09-30T15:56:48;22.20;78.40
3942;DHT22;1985;48.592;8.850;2023-09-30T15:59:14;22.10;78.90
3942;DHT22;1985;48.592;8.850;2023-09-30T16:01:40;22.00;78.90
3942;DHT22;1985;48.592;8.850;2023-09-30T16:04:05;21.90;79.80
3942;DHT22;1985;48.592;8.850;2023-09-30T16:06:31;21.80;80.50
3942;DHT22;1985;48.592;8.850;2023-09-30T16:08:58;21.80;81.10
3942;DHT22;1985;48.592;8.850;2023-09-30T16:11:25;21.70;81.40
3942;DHT22;1985;48.592;8.850;2023-09-30T16:13:50;21.70;81.90
3942;DHT22;1985;48.592;8.850;2023-09-30T16:16:17;21.60;82.30
3942;DHT22;1985;48.592;8.850;2023-09-30T16:18:43;21.60;83.10
3942;DHT22;1985;48.592;8.850;2023-09-30T16:21:08;21.60;83.30
3942;DHT22;1985;48.592;8.850;2023-09-30T16:23:34;21.50;83.90
3942;DHT22;1985;48.592;8.850;2023-09-30T16:26:00;21.50;84.50
3942;DHT22;1985;48.592;8.850;2023-09-30T16:28:25;21.30;83.90